Terminal Aerodrome Forecast
Issued by NWS

Home | Current Version | Previous Version | Text Only | Print | Product List | Glossary On
Versions: 1 2 3 4 5 6 7 8 9 10 11 12 13 14 15 16 17 18 19 20 21
243
FTUS43 KIND 221100
TAFLAF
TAF
KLAF 221125Z 2212/2312 25003KT P6SM FEW100
     FM221600 35007KT P6SM SCT050
     FM230000 04005KT P6SM BKN250
      AMD LTD TO CLD VIS AND WIND TIL 221300=

USA.gov is the U.S. government's official web portal to all federal, state and local government web resources and services.